Historyczne dane pomiarowe

Dodano dane terminowe – wersja testowa.

Dane z okresu 1951-2019

Wersja bazy: 1.34 [2019-03-16, lista zmian], aktualizacja planowana na 2019-04-15

Dane meteo z obszaru Polski uzyskane na podstawie danych udostępnionych przez Instytut Meteorologii i Gospodarki Wodnej – Państwowy Instytut Badawczy.

 

Wybierz Datę:    

       

TemperaturaWilgotnośćZachmurzenieWiatrCiśnienieWidzialnośćZjawiska
 Data    tng td wb rh cc ccl cl cm ch dir g1 g2 mslp ppp      
1999-07-25 00:00:00 5.9--- 4.3 5.190wxwx1wx--- 806.1 0.0---wxw1
1999-07-25 01:00:00 6.5--- 5.0 5.790wxwx0wx--- 806.0----wx
1999-07-25 02:00:00 6.7--- 5.1 5.990wxwxwx3wx--- 805.8----wx
1999-07-25 03:00:00 8.0--- 6.1 7.087wxwxwx2wx--- 805.9----wx
1999-07-25 04:00:00 9.3--- 7.0 8.185wxwxwx3wx--- 806.0----wx
1999-07-25 05:00:00 9.7--- 4.1 6.968wxwxwxwx3wx--- 806.4----wx
1999-07-25 06:00:00 11.3--- 5.0 8.165wxwxwxwx1wx--- 806.5 0.0---wx
1999-07-25 07:00:00 11.3--- 7.8 9.479wxwxwx2wx--- 806.6----wx
1999-07-25 08:00:00 12.6--- 9.8 11.083wxwxwxwx1wx--- 806.8----wx
1999-07-25 09:00:00 12.2--- 8.5 10.278wxwxwxwxwx3wx--- 807.2----wx
1999-07-25 10:00:00 14.2--- 11.6 12.684wxwxwx1wx--- 807.1----wx
1999-07-25 11:00:00 13.8--- 10.5 11.981wxwxwx2wx--- 807.2----wxw1
1999-07-25 12:00:00 14.2--- 11.8 12.885wxwxwx2wx--- 807.1 0.0---wxw1
1999-07-25 13:00:00 12.8--- 11.4 12.092wxwx1wx--- 806.9----wxw1
1999-07-25 14:00:00 13.0--- 10.5 11.585wxwxwx2wx--- 806.8----wxw1
1999-07-25 15:00:00 13.7--- 12.2 12.891wxwxwx1wx--- 806.7----wxw1
1999-07-25 16:00:00 13.8--- 10.8 12.082wxwxwx3wx--- 806.5----wxw1
1999-07-25 17:00:00 12.2--- 11.4 11.795wxwxwx4wx--- 806.3----wxw1
1999-07-25 18:00:00 11.5--- 10.9 11.296wxwxwx3wx--- 806.2 0.0---wxw1
1999-07-25 19:00:00 11.1--- 11.1 11.1100wxwxwx4wx--- 806.3----wxw1
1999-07-25 20:00:00 10.7--- 10.7 10.7100wxwxwxwx4wx--- 806.5----wxw1
1999-07-25 21:00:00 11.3--- 8.9 10.085wxwxwx3wx--- 806.2----wx
1999-07-25 22:00:00 11.5--- 8.5 9.881wxwxwx2wx--- 806.0----wx
1999-07-25 23:00:00 11.4--- 7.7 9.478wxwxwx3wx--- 805.4----wx

 

Źródłem pochodzenia danych jest Instytut Meteorologii i Gospodarki Wodnej – Państwowy Instytut Badawczy. Dane Instytutu Meteorologii i Gospodarki Wodnej – Państwowego Instytutu Badawczego zostały przetworzone.

Dane źródłowe można odnaleźć na stronie https://dane.imgw.pl